This is the latest recevied weather packets stored in our database for station/object WA6ODQ-13. If no packets are shown the sender has not sent any weather packets the latest 1 day(s).
| Time | Temp. | Humidity | Pressure | Rain* | Wind** | Luminosity | Snow |
|---|---|---|---|---|---|---|---|
| 1778009951 | 17.22° C | 79% | 1014.3 hPa | 0 mm | 0.89 m/s, 353° | 313 W/m² | - |
| 1778009649 | 17.22° C | 80% | 1014.2 hPa | 0 mm | 0.45 m/s, 7° | 265 W/m² | - |
| 1778009347 | 16.67° C | 80% | 1014.3 hPa | 0 mm | 1.34 m/s, 350° | 247 W/m² | - |
| 1778009045 | 16.67° C | 81% | 1014.2 hPa | 0 mm | 0.89 m/s, 342° | 249 W/m² | - |
| 1778008742 | 16.11° C | 83% | 1014.3 hPa | 0 mm | 0.89 m/s, 323° | 234 W/m² | - |
| 1778008440 | 15.56° C | 84% | 1014.3 hPa | 0 mm | 0 m/s | 101 W/m² | - |
| 1778008137 | 16.11° C | 83% | 1014.4 hPa | 0 mm | 0.45 m/s, 6° | 84 W/m² | - |
| 1778007832 | 16.67° C | 82% | 1014.4 hPa | 0 mm | 0.45 m/s, 338° | 70 W/m² | - |
| 1778007528 | 16.67° C | 82% | 1014 hPa | 0 mm | 0.45 m/s, 343° | 136 W/m² | - |
| 1778007225 | 16.67° C | 81% | 1013.9 hPa | 0 mm | 0.45 m/s, 359° | 277 W/m² | - |
| 1778006921 | 16.67° C | 81% | 1014.1 hPa | 0 mm | 0.89 m/s, 317° | 156 W/m² | - |
| 1778006618 | 16.67° C | 81% | 1014.1 hPa | 0 mm | 0.45 m/s, 303° | 154 W/m² | - |
| 1778006315 | 16.11° C | 82% | 1013.9 hPa | 0 mm | 0.89 m/s, 346° | 332 W/m² | - |
| 1778006012 | 16.11° C | 82% | 1014.1 hPa | 0 mm | 2.24 m/s, 356° | 224 W/m² | - |
| 1778005709 | 16.11° C | 84% | 1014 hPa | 0 mm | 1.79 m/s, 321° | 317 W/m² | - |
| 1778005405 | 15.56° C | 84% | 1013.9 hPa | 0 mm | 0.89 m/s, 2° | 276 W/m² | - |
| 1778005102 | 15.56° C | 85% | 1013.9 hPa | 0 mm | 1.79 m/s, 342° | 196 W/m² | - |
| 1778004800 | 15.56° C | 85% | 1014 hPa | 0 mm | 1.34 m/s, 335° | 136 W/m² | - |
| 1778004496 | 15.56° C | 85% | 1014.1 hPa | 0 mm | 0.89 m/s, 45° | 159 W/m² | - |
| 1778004192 | 15.56° C | 85% | 1014.1 hPa | 0 mm | 0.89 m/s, 340° | 190 W/m² | - |
| 1778003889 | 15.56° C | 85% | 1014 hPa | 0 mm | 0.89 m/s, 350° | 146 W/m² | - |
| 1778003585 | 15.56° C | 85% | 1013.9 hPa | 0 mm | 0.89 m/s, 353° | 348 W/m² | - |
| 1778003282 | 15.56° C | 85% | 1013.7 hPa | 0 mm | 0.45 m/s, 0° | 174 W/m² | - |
| 1778002979 | 15.56° C | 86% | 1013.8 hPa | 0 mm | 1.34 m/s, 348° | 111 W/m² | - |
| 1778002675 | 16.11° C | 84% | 1013.7 hPa | 0 mm | 1.34 m/s, 346° | 179 W/m² | - |
* Rain latest hour (hover to see other rain measurements)
** Current wind speed in m/s (hover to see current wind gust speed)